DLH5TP EDDF-EDDL
Flight info
| Callsign | DLH5TP |
|---|---|
| Flight time | N/A |
| Altitude | 20000 |
| Route | MARUN9S MARUN Y152 ARPEG Z850 ADEMI T854 DOMUX DOMUX1A |
| Aircraft | A320/M-SDE3FGHIRWY/LB1 |
Departure
| Time | 2026-04-14 14:55 |
|---|---|
| Airport | Frankfurt Main Airport (EDDF) |
Arrival
| Time | N/A |
|---|---|
| Airport | Düsseldorf Airport (EDDL) |
| Time | Latitude | Longitude | Altitude | Speed | Heading |
|---|---|---|---|---|---|
| 2026-04-14 14:12 | 50.04705 | 8.56842 | 356 ft | 0 kts | 294° |
| 2026-04-14 14:42 | 50.04702 | 8.56852 | 356 ft | 4 kts | 294° |
| 2026-04-14 14:42 | 50.04691 | 8.56891 | 357 ft | 4 kts | 295° |
| 2026-04-14 14:43 | 50.04682 | 8.56928 | 356 ft | 4 kts | 269° |
| 2026-04-14 14:43 | 50.04690 | 8.56959 | 356 ft | 4 kts | 211° |
| 2026-04-14 14:43 | 50.04695 | 8.56964 | 356 ft | 3 kts | 204° |
| 2026-04-14 14:43 | 50.04671 | 8.56947 | 364 ft | 4 kts | 204° |
| 2026-04-14 14:44 | 50.04651 | 8.56932 | 356 ft | 0 kts | 204° |
| 2026-04-14 14:47 | 50.04649 | 8.56931 | 356 ft | 1 kts | 204° |
| 2026-04-14 14:47 | 50.04633 | 8.56922 | 356 ft | 4 kts | 200° |
| 2026-04-14 14:47 | 50.04602 | 8.56909 | 356 ft | 6 kts | 194° |
| 2026-04-14 14:47 | 50.04564 | 8.56895 | 358 ft | 4 kts | 193° |
| 2026-04-14 14:48 | 50.04538 | 8.56885 | 359 ft | 5 kts | 194° |
| 2026-04-14 14:48 | 50.04499 | 8.56871 | 359 ft | 7 kts | 194° |
| 2026-04-14 14:48 | 50.04445 | 8.56853 | 359 ft | 9 kts | 189° |
| 2026-04-14 14:48 | 50.04377 | 8.56837 | 360 ft | 11 kts | 191° |
| 2026-04-14 14:49 | 50.04296 | 8.56811 | 360 ft | 12 kts | 192° |
| 2026-04-14 14:49 | 50.04233 | 8.56726 | 361 ft | 14 kts | 249° |
| 2026-04-14 14:49 | 50.04196 | 8.56565 | 363 ft | 17 kts | 250° |
| 2026-04-14 14:49 | 50.04151 | 8.56376 | 358 ft | 20 kts | 249° |
| 2026-04-14 14:50 | 50.04116 | 8.56233 | 361 ft | 13 kts | 249° |
| 2026-04-14 14:50 | 50.04082 | 8.56088 | 360 ft | 15 kts | 249° |
| 2026-04-14 14:50 | 50.04042 | 8.55922 | 356 ft | 17 kts | 250° |
| 2026-04-14 14:50 | 50.03997 | 8.55735 | 349 ft | 19 kts | 249° |
| 2026-04-14 14:51 | 50.03973 | 8.55637 | 349 ft | 7 kts | 250° |
| 2026-04-14 14:51 | 50.03954 | 8.55553 | 356 ft | 9 kts | 250° |
| 2026-04-14 14:51 | 50.03931 | 8.55458 | 356 ft | 10 kts | 249° |
| 2026-04-14 14:51 | 50.03904 | 8.55346 | 357 ft | 12 kts | 250° |
| 2026-04-14 14:52 | 50.03873 | 8.55214 | 353 ft | 14 kts | 250° |
| 2026-04-14 14:52 | 50.03837 | 8.55065 | 358 ft | 16 kts | 249° |
| 2026-04-14 14:52 | 50.03796 | 8.54895 | 350 ft | 18 kts | 250° |
| 2026-04-14 14:52 | 50.03751 | 8.54704 | 354 ft | 20 kts | 250° |
| 2026-04-14 14:53 | 50.03699 | 8.54489 | 345 ft | 23 kts | 250° |
| 2026-04-14 14:53 | 50.03661 | 8.54333 | 349 ft | 12 kts | 244° |
| 2026-04-14 14:53 | 50.03582 | 8.54326 | 341 ft | 13 kts | 160° |
| 2026-04-14 14:53 | 50.03500 | 8.54372 | 349 ft | 8 kts | 160° |
| 2026-04-14 14:54 | 50.03485 | 8.54403 | 343 ft | 3 kts | 73° |
| 2026-04-14 14:54 | 50.03488 | 8.54413 | 347 ft | 0 kts | 69° |
| 2026-04-14 14:54 | 50.03499 | 8.54455 | 343 ft | 25 kts | 69° |
| 2026-04-14 14:54 | 50.03659 | 8.55120 | 350 ft | 104 kts | 69° |
| 2026-04-14 14:55 | 50.03986 | 8.56486 | 397 ft | 158 kts | 69° |
| 2026-04-14 14:55 | 50.04365 | 8.58094 | 1079 ft | 160 kts | 69° |
| 2026-04-14 14:55 | 50.04754 | 8.59725 | 1855 ft | 160 kts | 68° |
| 2026-04-14 14:55 | 50.05150 | 8.61396 | 2361 ft | 174 kts | 70° |
| 2026-04-14 14:56 | 50.07210 | 8.63642 | 2990 ft | 210 kts | 358° |
| 2026-04-14 14:56 | 50.08683 | 8.63522 | 3644 ft | 213 kts | 356° |
| 2026-04-14 14:56 | 50.10163 | 8.63406 | 4429 ft | 213 kts | 357° |
| 2026-04-14 14:57 | 50.11704 | 8.63297 | 4884 ft | 233 kts | 357° |
| 2026-04-14 14:57 | 50.13409 | 8.63180 | 5301 ft | 254 kts | 357° |
| 2026-04-14 14:57 | 50.15204 | 8.63059 | 5998 ft | 261 kts | 357° |
| 2026-04-14 14:57 | 50.17029 | 8.62935 | 6775 ft | 264 kts | 357° |
| 2026-04-14 14:58 | 50.18880 | 8.62810 | 7555 ft | 268 kts | 357° |
| 2026-04-14 14:58 | 50.20760 | 8.62684 | 8332 ft | 272 kts | 357° |
| 2026-04-14 14:58 | 50.22663 | 8.62558 | 9075 ft | 276 kts | 357° |
| 2026-04-14 14:58 | 50.24375 | 8.62445 | 9709 ft | 279 kts | 357° |